createdAt,value
2023-01-18T00:04:19.424Z,97.67
2023-01-18T00:10:22.584Z,97.93
2023-01-18T00:16:25.888Z,97.18
2023-01-18T00:22:27.834Z,96.85
2023-01-18T00:28:30.116Z,97.44
2023-01-18T00:34:32.072Z,97.91
2023-01-18T00:40:33.998Z,97.90
2023-01-18T00:46:35.875Z,97.99
2023-01-18T00:52:38.431Z,98.02
2023-01-18T00:58:40.573Z,98.45
2023-01-18T01:05:00.925Z,98.62
2023-01-18T01:11:12.504Z,98.85
2023-01-18T01:17:33.114Z,99.38
2023-01-18T01:23:53.291Z,99.17
2023-01-18T01:29:55.151Z,98.49
2023-01-18T01:36:03.136Z,99.20
2023-01-18T01:42:05.049Z,98.69
2023-01-18T01:48:09.839Z,98.56
2023-01-18T01:54:29.745Z,98.18
2023-01-18T02:00:33.650Z,98.68
2023-01-18T02:06:39.517Z,99.08
2023-01-18T02:12:44.844Z,99.18
2023-01-18T02:19:29.327Z,99.34
2023-01-18T02:25:43.549Z,99.04
2023-01-18T02:32:36.821Z,98.65
2023-01-18T02:38:49.947Z,98.69
2023-01-18T02:45:10.558Z,98.96
2023-01-18T02:51:12.618Z,98.48
2023-01-18T02:57:16.032Z,98.96
2023-01-18T03:03:20.167Z,98.62
2023-01-18T03:09:27.025Z,98.61
2023-01-18T03:15:49.191Z,98.38
2023-01-18T03:21:53.220Z,98.03
2023-01-18T03:28:15.480Z,97.93
2023-01-18T03:34:52.735Z,98.04
2023-01-18T03:40:55.054Z,97.98
2023-01-18T03:46:57.430Z,97.84
2023-01-18T03:53:07.592Z,98.03
2023-01-18T03:59:09.809Z,98.47
2023-01-18T04:05:12.026Z,98.23
2023-01-18T04:11:13.916Z,98.54
2023-01-18T04:17:16.042Z,98.46
2023-01-18T04:23:17.944Z,98.71
2023-01-18T04:29:19.833Z,98.81
2023-01-18T04:35:21.692Z,98.59
2023-01-18T04:41:24.154Z,98.27
2023-01-18T04:47:29.092Z,98.59
2023-01-18T04:53:31.039Z,98.38
2023-01-18T04:59:32.965Z,98.88
2023-01-18T05:05:34.887Z,98.79
2023-01-18T05:11:36.787Z,98.53
2023-01-18T05:17:38.680Z,97.84
2023-01-18T05:23:40.905Z,98.46
2023-01-18T05:29:43.945Z,97.75
2023-01-18T05:35:54.393Z,98.00
2023-01-18T05:41:57.616Z,97.88
2023-01-18T05:48:01.240Z,98.31
2023-01-18T05:54:03.231Z,98.05
2023-01-18T06:00:06.411Z,98.39
2023-01-18T06:06:08.843Z,98.17
2023-01-18T06:12:10.798Z,98.01
2023-01-18T06:18:12.810Z,98.15
2023-01-18T06:24:14.741Z,98.02
2023-01-18T06:30:17.875Z,98.09
2023-01-18T06:36:19.770Z,98.57
2023-01-18T06:42:21.653Z,98.08
2023-01-18T06:48:24.913Z,98.74
2023-01-18T06:54:26.809Z,98.75
2023-01-18T07:00:28.983Z,98.29
2023-01-18T07:06:32.150Z,98.43
2023-01-18T07:12:34.174Z,98.71
2023-01-18T07:18:36.125Z,98.79
2023-01-18T07:24:38.023Z,99.60
2023-01-18T07:30:39.891Z,99.68
2023-01-18T07:36:42.056Z,99.65
2023-01-18T07:42:44.439Z,98.94
2023-01-18T07:48:48.214Z,98.91
2023-01-18T07:54:50.442Z,99.26
2023-01-18T08:00:52.808Z,98.68
2023-01-18T08:06:58.389Z,98.88
2023-01-18T08:13:00.594Z,99.12
2023-01-18T08:19:02.699Z,98.82
2023-01-18T08:25:05.155Z,98.67
2023-01-18T08:31:15.833Z,98.31
2023-01-18T08:37:17.741Z,97.98
2023-01-18T08:43:19.676Z,97.28
2023-01-18T08:49:21.662Z,97.08
2023-01-18T08:55:25.993Z,97.12
2023-01-18T09:01:28.616Z,96.97
2023-01-18T09:07:30.579Z,97.41
2023-01-18T09:13:32.999Z,96.72
2023-01-18T09:19:34.893Z,96.58
2023-01-18T09:25:37.783Z,96.07
2023-01-18T09:31:39.724Z,94.25
2023-01-18T09:37:41.600Z,94.09
2023-01-18T09:43:54.479Z,92.94
2023-01-18T09:50:00.071Z,93.22
2023-01-18T09:56:28.946Z,93.10
2023-01-18T10:02:40.921Z,91.74
2023-01-18T10:09:06.379Z,92.21
2023-01-18T10:15:23.272Z,91.48
2023-01-18T10:22:04.884Z,90.72
2023-01-18T10:28:39.636Z,89.82
2023-01-18T10:34:48.172Z,87.01
2023-01-18T10:41:00.576Z,86.90
2023-01-18T10:47:02.851Z,86.88
2023-01-18T10:53:24.813Z,85.67
2023-01-18T10:59:39.920Z,86.16
2023-01-18T11:05:46.114Z,86.11
2023-01-18T11:12:06.349Z,83.32
2023-01-18T11:18:12.020Z,80.67
2023-01-18T11:24:24.832Z,78.69
2023-01-18T11:30:27.344Z,77.29
2023-01-18T11:36:44.259Z,76.90
2023-01-18T11:42:48.713Z,75.65
2023-01-18T11:49:01.631Z,73.55
2023-01-18T11:55:17.802Z,73.32
2023-01-18T12:01:59.619Z,71.84
2023-01-18T12:08:39.707Z,73.05
2023-01-18T12:14:59.384Z,72.58
2023-01-18T12:21:09.905Z,72.49
2023-01-18T12:27:47.087Z,72.90
2023-01-18T12:34:10.539Z,72.26
2023-01-18T12:40:37.301Z,72.46
2023-01-18T12:46:59.738Z,72.86
2023-01-18T12:53:11.373Z,73.74
2023-01-18T12:59:28.752Z,74.53
2023-01-18T13:05:51.133Z,74.13
2023-01-18T13:11:53.495Z,74.79
2023-01-18T13:18:24.548Z,74.22
2023-01-18T13:25:08.861Z,73.82
2023-01-18T13:31:10.851Z,74.49
2023-01-18T13:37:43.153Z,74.50
2023-01-18T13:43:44.935Z,74.15
2023-01-18T13:49:47.153Z,74.19
2023-01-18T13:56:33.172Z,74.40
2023-01-18T14:02:45.324Z,74.50
2023-01-18T14:09:01.116Z,74.35
2023-01-18T14:15:03.285Z,74.92
2023-01-18T14:21:27.897Z,75.42
2023-01-18T14:27:38.483Z,76.59
2023-01-18T14:33:41.574Z,77.18
2023-01-18T14:39:43.450Z,77.94
2023-01-18T14:46:15.905Z,78.68
2023-01-18T14:52:18.927Z,79.54
2023-01-18T14:58:20.800Z,81.28
2023-01-18T15:04:29.870Z,81.21
2023-01-18T15:10:32.819Z,83.02
2023-01-18T15:16:35.298Z,83.67
2023-01-18T15:22:40.457Z,85.61
2023-01-18T15:28:42.387Z,86.36
2023-01-18T15:34:47.902Z,87.29
2023-01-18T15:41:14.587Z,88.02
2023-01-18T15:47:58.517Z,89.16
2023-01-18T15:54:00.765Z,89.16
2023-01-18T16:00:05.884Z,91.07
2023-01-18T16:06:15.074Z,90.38
2023-01-18T16:12:33.918Z,92.67
2023-01-18T16:18:35.918Z,92.23
2023-01-18T16:24:58.397Z,91.21
2023-01-18T16:31:03.383Z,91.91
2023-01-18T16:37:07.690Z,91.08
2023-01-18T16:43:27.486Z,91.86
2023-01-18T16:49:29.499Z,92.59
2023-01-18T16:55:31.376Z,92.47
2023-01-18T17:01:33.461Z,92.70
2023-01-18T17:07:35.469Z,92.93
2023-01-18T17:13:37.482Z,92.81
2023-01-18T17:19:41.695Z,93.15
2023-01-18T17:25:44.405Z,93.57
2023-01-18T17:31:52.332Z,94.02
2023-01-18T17:38:01.168Z,93.60
2023-01-18T17:44:09.512Z,93.38
2023-01-18T17:50:17.197Z,93.70
2023-01-18T17:56:19.245Z,94.44
2023-01-18T18:02:22.720Z,93.29
2023-01-18T18:08:24.836Z,93.48
2023-01-18T18:14:26.750Z,92.77
2023-01-18T18:20:28.648Z,92.55
2023-01-18T18:26:30.698Z,92.18
2023-01-18T18:32:32.596Z,92.09
2023-01-18T18:38:34.549Z,91.75
2023-01-18T18:44:36.611Z,92.63
2023-01-18T18:50:39.231Z,92.48
2023-01-18T18:56:41.604Z,93.02
2023-01-18T19:02:43.565Z,92.35
2023-01-18T19:08:45.783Z,93.00
2023-01-18T19:14:48.882Z,93.13
2023-01-18T19:20:51.314Z,93.44
2023-01-18T19:26:53.231Z,93.29
2023-01-18T19:32:55.511Z,94.04
2023-01-18T19:39:00.212Z,94.07
2023-01-18T19:45:03.988Z,94.15
2023-01-18T19:51:22.490Z,94.32
2023-01-18T19:57:26.605Z,93.76
2023-01-18T20:03:29.615Z,93.42
2023-01-18T20:09:42.750Z,92.54
2023-01-18T20:15:50.633Z,92.48
2023-01-18T20:21:52.713Z,92.79
2023-01-18T20:27:55.712Z,93.20
2023-01-18T20:33:57.595Z,92.95
2023-01-18T20:39:59.527Z,93.14
2023-01-18T20:46:11.224Z,93.30
2023-01-18T20:52:13.414Z,93.30
2023-01-18T20:58:15.317Z,93.79
2023-01-18T21:04:17.289Z,93.85
2023-01-18T21:10:19.242Z,93.83
2023-01-18T21:16:22.086Z,94.66
2023-01-18T21:22:24.016Z,94.12
2023-01-18T21:28:26.532Z,94.38
2023-01-18T21:34:28.417Z,94.08
2023-01-18T21:40:30.712Z,94.96
2023-01-18T21:46:32.695Z,94.78
2023-01-18T21:52:53.481Z,95.16
2023-01-18T21:58:57.886Z,94.85
2023-01-18T22:05:09.853Z,94.82
2023-01-18T22:11:11.726Z,94.81
2023-01-18T22:17:13.648Z,95.09
2023-01-18T22:23:15.741Z,95.26
2023-01-18T22:29:17.663Z,95.06
2023-01-18T22:35:19.628Z,95.29
2023-01-18T22:41:25.202Z,95.96
2023-01-18T22:47:27.461Z,95.34
2023-01-18T22:53:38.595Z,95.56
2023-01-18T22:59:40.539Z,95.73
2023-01-18T23:05:42.649Z,95.92
2023-01-18T23:11:45.431Z,95.75
2023-01-18T23:17:47.355Z,95.66
2023-01-18T23:23:49.373Z,96.10
2023-01-18T23:30:00.596Z,95.70
2023-01-18T23:36:03.045Z,96.02
2023-01-18T23:42:23.886Z,95.91
2023-01-18T23:48:44.892Z,95.80
2023-01-18T23:54:47.140Z,95.61
